sensor_id;sensor_type;location;lat;lon;timestamp;pressure;altitude;pressure_sealevel;temperature;humidity
69630;BME280;56857;52.212;5.496;2023-03-01T00:02:12;103287.53;;;0.46;100.00
69630;BME280;56857;52.212;5.496;2023-03-01T00:04:38;103290.28;;;0.41;100.00
69630;BME280;56857;52.212;5.496;2023-03-01T00:07:04;103287.94;;;0.32;100.00
69630;BME280;56857;52.212;5.496;2023-03-01T00:09:29;103291.50;;;0.28;100.00
69630;BME280;56857;52.212;5.496;2023-03-01T00:11:54;103282.84;;;0.28;100.00
69630;BME280;56857;52.212;5.496;2023-03-01T00:14:20;103278.59;;;0.23;100.00
69630;BME280;56857;52.212;5.496;2023-03-01T00:16:45;103287.28;;;0.24;100.00
69630;BME280;56857;52.212;5.496;2023-03-01T00:19:16;103284.72;;;0.22;100.00
69630;BME280;56857;52.212;5.496;2023-03-01T00:21:42;103278.59;;;0.23;100.00
69630;BME280;56857;52.212;5.496;2023-03-01T00:24:07;103284.66;;;0.26;100.00
69630;BME280;56857;52.212;5.496;2023-03-01T00:26:33;103271.63;;;0.24;100.00
69630;BME280;56857;52.212;5.496;2023-03-01T00:28:59;103269.00;;;0.26;100.00
69630;BME280;56857;52.212;5.496;2023-03-01T00:31:27;103274.16;;;0.27;100.00
69630;BME280;56857;52.212;5.496;2023-03-01T00:33:53;103272.47;;;0.26;100.00
69630;BME280;56857;52.212;5.496;2023-03-01T00:36:19;103271.63;;;0.24;100.00
69630;BME280;56857;52.212;5.496;2023-03-01T00:38:45;103268.19;;;0.23;100.00
69630;BME280;56857;52.212;5.496;2023-03-01T00:41:15;103269.09;;;0.22;100.00
69630;BME280;56857;52.212;5.496;2023-03-01T00:43:43;103268.34;;;0.17;100.00
69630;BME280;56857;52.212;5.496;2023-03-01T00:46:13;103263.19;;;0.16;100.00
69630;BME280;56857;52.212;5.496;2023-03-01T00:48:39;103267.53;;;0.15;100.00
69630;BME280;56857;52.212;5.496;2023-03-01T00:51:12;103270.13;;;0.15;100.00
69630;BME280;56857;52.212;5.496;2023-03-01T00:53:38;103270.09;;;0.17;100.00
69630;BME280;56857;52.212;5.496;2023-03-01T00:56:04;103266.59;;;0.18;100.00
69630;BME280;56857;52.212;5.496;2023-03-01T00:58:30;103263.13;;;0.17;100.00
69630;BME280;56857;52.212;5.496;2023-03-01T01:00:55;103257.06;;;0.17;100.00
69630;BME280;56857;52.212;5.496;2023-03-01T01:03:21;103264.03;;;0.16;100.00
69630;BME280;56857;52.212;5.496;2023-03-01T01:05:47;103247.63;;;0.13;100.00
69630;BME280;56857;52.212;5.496;2023-03-01T01:08:12;103249.34;;;0.12;100.00
69630;BME280;56857;52.212;5.496;2023-03-01T01:10:37;103238.97;;;0.11;100.00
69630;BME280;56857;52.212;5.496;2023-03-01T01:13:04;103232.94;;;0.09;100.00
69630;BME280;56857;52.212;5.496;2023-03-01T01:15:31;103232.13;;;0.07;100.00
69630;BME280;56857;52.212;5.496;2023-03-01T01:17:58;103235.59;;;0.07;100.00
69630;BME280;56857;52.212;5.496;2023-03-01T01:20:23;103229.53;;;0.07;100.00
69630;BME280;56857;52.212;5.496;2023-03-01T01:22:50;103231.31;;;0.05;100.00
69630;BME280;56857;52.212;5.496;2023-03-01T01:25:15;103230.56;;;0.01;100.00
69630;BME280;56857;52.212;5.496;2023-03-01T01:27:41;103225.34;;;0.01;100.00
69630;BME280;56857;52.212;5.496;2023-03-01T01:30:07;103223.56;;;0.02;100.00
69630;BME280;56857;52.212;5.496;2023-03-01T01:32:33;103221.03;;;0.00;100.00
69630;BME280;56857;52.212;5.496;2023-03-01T01:34:58;103213.28;;;-0.03;100.00
69630;BME280;56857;52.212;5.496;2023-03-01T01:37:23;103223.72;;;-0.03;100.00
69630;BME280;56857;52.212;5.496;2023-03-01T01:39:49;103224.59;;;-0.04;100.00
69630;BME280;56857;52.212;5.496;2023-03-01T01:42:16;103219.44;;;-0.06;100.00
69630;BME280;56857;52.212;5.496;2023-03-01T01:44:45;103215.09;;;-0.07;100.00
69630;BME280;56857;52.212;5.496;2023-03-01T01:47:17;103220.38;;;-0.08;100.00
69630;BME280;56857;52.212;5.496;2023-03-01T01:49:56;103217.00;;;-0.12;100.00
69630;BME280;56857;52.212;5.496;2023-03-01T01:52:29;103220.44;;;-0.11;100.00
69630;BME280;56857;52.212;5.496;2023-03-01T01:55:11;103214.47;;;-0.15;100.00
69630;BME280;56857;52.212;5.496;2023-03-01T01:57:48;103210.97;;;-0.14;100.00
69630;BME280;56857;52.212;5.496;2023-03-01T02:00:23;103213.53;;;-0.12;100.00
69630;BME280;56857;52.212;5.496;2023-03-01T02:02:51;103208.31;;;-0.12;100.00
69630;BME280;56857;52.212;5.496;2023-03-01T02:08:02;103203.97;;;-0.12;100.00
69630;BME280;56857;52.212;5.496;2023-03-01T02:10:28;103207.44;;;-0.13;100.00
69630;BME280;56857;52.212;5.496;2023-03-01T02:12:55;103198.78;;;-0.13;100.00
69630;BME280;56857;52.212;5.496;2023-03-01T02:15:22;103200.50;;;-0.12;100.00
69630;BME280;56857;52.212;5.496;2023-03-01T02:17:47;103207.34;;;-0.10;100.00
69630;BME280;56857;52.212;5.496;2023-03-01T02:20:23;103204.72;;;-0.08;100.00
69630;BME280;56857;52.212;5.496;2023-03-01T02:22:51;103198.66;;;-0.09;100.00
69630;BME280;56857;52.212;5.496;2023-03-01T02:30:26;103186.66;;;-0.14;100.00
69630;BME280;56857;52.212;5.496;2023-03-01T02:32:54;103188.41;;;-0.15;100.00
69630;BME280;56857;52.212;5.496;2023-03-01T02:35:21;103187.50;;;-0.14;100.00
69630;BME280;56857;52.212;5.496;2023-03-01T02:37:46;103189.19;;;-0.13;100.00
69630;BME280;56857;52.212;5.496;2023-03-01T02:40:18;103183.19;;;-0.15;100.00
69630;BME280;56857;52.212;5.496;2023-03-01T02:42:53;103185.03;;;-0.18;100.00
69630;BME280;56857;52.212;5.496;2023-03-01T02:45:20;103181.56;;;-0.19;100.00
69630;BME280;56857;52.212;5.496;2023-03-01T02:47:45;103178.97;;;-0.19;100.00
69630;BME280;56857;52.212;5.496;2023-03-01T02:55:29;103175.63;;;-0.26;100.00
69630;BME280;56857;52.212;5.496;2023-03-01T02:58:00;103173.94;;;-0.27;100.00
69630;BME280;56857;52.212;5.496;2023-03-01T03:00:32;103174.88;;;-0.29;100.00
69630;BME280;56857;52.212;5.496;2023-03-01T03:03:00;103173.19;;;-0.32;100.00
69630;BME280;56857;52.212;5.496;2023-03-01T03:05:29;103170.59;;;-0.32;100.00
69630;BME280;56857;52.212;5.496;2023-03-01T03:07:56;103165.44;;;-0.33;100.00
69630;BME280;56857;52.212;5.496;2023-03-01T03:10:25;103165.44;;;-0.33;100.00
69630;BME280;56857;52.212;5.496;2023-03-01T03:13:02;103168.03;;;-0.33;100.00
69630;BME280;56857;52.212;5.496;2023-03-01T03:15:28;103166.38;;;-0.36;100.00
69630;BME280;56857;52.212;5.496;2023-03-01T03:17:57;103151.66;;;-0.38;100.00
69630;BME280;56857;52.212;5.496;2023-03-01T03:20:25;103151.72;;;-0.40;100.00
69630;BME280;56857;52.212;5.496;2023-03-01T03:22:53;103151.75;;;-0.41;100.00
69630;BME280;56857;52.212;5.496;2023-03-01T03:25:19;103143.16;;;-0.45;100.00
69630;BME280;56857;52.212;5.496;2023-03-01T03:27:46;103146.63;;;-0.44;100.00
69630;BME280;56857;52.212;5.496;2023-03-01T03:30:17;103146.69;;;-0.48;100.00
69630;BME280;56857;52.212;5.496;2023-03-01T03:32:45;103150.13;;;-0.45;100.00
69630;BME280;56857;52.212;5.496;2023-03-01T03:35:11;103146.63;;;-0.44;100.00
69630;BME280;56857;52.212;5.496;2023-03-01T03:37:38;103154.44;;;-0.44;100.00
69630;BME280;56857;52.212;5.496;2023-03-01T03:40:04;103145.81;;;-0.47;100.00
69630;BME280;56857;52.212;5.496;2023-03-01T03:42:29;103152.72;;;-0.44;100.00
69630;BME280;56857;52.212;5.496;2023-03-01T03:44:55;103146.63;;;-0.44;100.00
69630;BME280;56857;52.212;5.496;2023-03-01T03:47:20;103137.97;;;-0.45;100.00
69630;BME280;56857;52.212;5.496;2023-03-01T03:49:45;103136.19;;;-0.44;100.00
69630;BME280;56857;52.212;5.496;2023-03-01T03:52:10;103134.56;;;-0.47;100.00
69630;BME280;56857;52.212;5.496;2023-03-01T03:54:36;103132.81;;;-0.48;100.00
69630;BME280;56857;52.212;5.496;2023-03-01T03:57:01;103138.09;;;-0.50;100.00
69630;BME280;56857;52.212;5.496;2023-03-01T03:59:26;103137.19;;;-0.49;100.00
69630;BME280;56857;52.212;5.496;2023-03-01T04:01:52;103138.97;;;-0.51;100.00
69630;BME280;56857;52.212;5.496;2023-03-01T04:04:17;103135.56;;;-0.53;100.00
69630;BME280;56857;52.212;5.496;2023-03-01T04:06:42;103137.31;;;-0.53;100.00
69630;BME280;56857;52.212;5.496;2023-03-01T04:09:08;103144.38;;;-0.57;100.00
69630;BME280;56857;52.212;5.496;2023-03-01T04:11:33;103143.56;;;-0.60;100.00
69630;BME280;56857;52.212;5.496;2023-03-01T04:13:58;103145.38;;;-0.62;100.00
69630;BME280;56857;52.212;5.496;2023-03-01T04:16:24;103141.94;;;-0.64;100.00
69630;BME280;56857;52.212;5.496;2023-03-01T04:18:49;103140.25;;;-0.65;100.00
69630;BME280;56857;52.212;5.496;2023-03-01T04:21:14;103140.28;;;-0.67;100.00
69630;BME280;56857;52.212;5.496;2023-03-01T04:23:40;103146.38;;;-0.68;100.00
69630;BME280;56857;52.212;5.496;2023-03-01T04:26:06;103149.03;;;-0.70;100.00
69630;BME280;56857;52.212;5.496;2023-03-01T04:28:36;103152.50;;;-0.69;100.00
69630;BME280;56857;52.212;5.496;2023-03-01T04:31:07;103146.47;;;-0.71;100.00
69630;BME280;56857;52.212;5.496;2023-03-01T04:33:33;103144.78;;;-0.72;100.00
69630;BME280;56857;52.212;5.496;2023-03-01T04:35:58;103149.97;;;-0.72;100.00
69630;BME280;56857;52.212;5.496;2023-03-01T04:38:23;103140.50;;;-0.76;100.00
69630;BME280;56857;52.212;5.496;2023-03-01T04:40:48;103149.16;;;-0.74;100.00
69630;BME280;56857;52.212;5.496;2023-03-01T04:43:14;103144.88;;;-0.77;100.00
69630;BME280;56857;52.212;5.496;2023-03-01T04:45:40;103142.31;;;-0.78;100.00
69630;BME280;56857;52.212;5.496;2023-03-01T04:48:05;103137.13;;;-0.78;100.00
69630;BME280;56857;52.212;5.496;2023-03-01T04:50:30;103143.25;;;-0.81;100.00
69630;BME280;56857;52.212;5.496;2023-03-01T04:52:56;103134.59;;;-0.83;100.00
69630;BME280;56857;52.212;5.496;2023-03-01T04:55:21;103126.88;;;-0.86;100.00
69630;BME280;56857;52.212;5.496;2023-03-01T04:57:46;103126.94;;;-0.87;100.00
69630;BME280;56857;52.212;5.496;2023-03-01T05:00:13;103115.69;;;-0.89;100.00
69630;BME280;56857;52.212;5.496;2023-03-01T05:02:39;103107.03;;;-0.90;100.00
69630;BME280;56857;52.212;5.496;2023-03-01T05:05:04;103105.28;;;-0.89;100.00
69630;BME280;56857;52.212;5.496;2023-03-01T05:07:30;103102.72;;;-0.91;100.00
69630;BME280;56857;52.212;5.496;2023-03-01T05:09:55;103101.84;;;-0.91;100.00
69630;BME280;56857;52.212;5.496;2023-03-01T05:12:20;103094.09;;;-0.93;100.00
69630;BME280;56857;52.212;5.496;2023-03-01T05:14:46;103098.38;;;-0.92;100.00
69630;BME280;56857;52.212;5.496;2023-03-01T05:17:11;103096.75;;;-0.95;100.00
69630;BME280;56857;52.212;5.496;2023-03-01T05:19:36;103103.66;;;-0.95;100.00
69630;BME280;56857;52.212;5.496;2023-03-01T05:22:02;103087.28;;;-0.99;100.00
69630;BME280;56857;52.212;5.496;2023-03-01T05:24:27;103088.13;;;-0.98;100.00
69630;BME280;56857;52.212;5.496;2023-03-01T05:26:54;103082.16;;;-1.02;100.00
69630;BME280;56857;52.212;5.496;2023-03-01T05:29:22;103078.75;;;-1.04;100.00
69630;BME280;56857;52.212;5.496;2023-03-01T05:31:48;103077.09;;;-1.06;100.00
69630;BME280;56857;52.212;5.496;2023-03-01T05:34:13;103078.00;;;-1.09;100.00
69630;BME280;56857;52.212;5.496;2023-03-01T05:36:39;103078.00;;;-1.09;100.00
69630;BME280;56857;52.212;5.496;2023-03-01T05:39:04;103072.81;;;-1.10;100.00
69630;BME280;56857;52.212;5.496;2023-03-01T05:41:30;103067.66;;;-1.12;100.00
69630;BME280;56857;52.212;5.496;2023-03-01T05:43:55;103073.78;;;-1.13;100.00
69630;BME280;56857;52.212;5.496;2023-03-01T05:46:20;103072.94;;;-1.15;100.00
69630;BME280;56857;52.212;5.496;2023-03-01T05:48:45;103063.47;;;-1.18;100.00
69630;BME280;56857;52.212;5.496;2023-03-01T05:51:11;103062.59;;;-1.17;100.00
69630;BME280;56857;52.212;5.496;2023-03-01T05:53:36;103060.84;;;-1.16;100.00
69630;BME280;56857;52.212;5.496;2023-03-01T05:56:05;103059.16;;;-1.19;100.00
69630;BME280;56857;52.212;5.496;2023-03-01T05:58:30;103062.63;;;-1.18;100.00
69630;BME280;56857;52.212;5.496;2023-03-01T06:00:55;103060.91;;;-1.19;100.00
69630;BME280;56857;52.212;5.496;2023-03-01T06:03:21;103054.88;;;-1.20;100.00
69630;BME280;56857;52.212;5.496;2023-03-01T06:05:46;103052.28;;;-1.21;100.00
69630;BME280;56857;52.212;5.496;2023-03-01T06:08:12;103044.53;;;-1.23;100.00
69630;BME280;56857;52.212;5.496;2023-03-01T06:10:37;103047.97;;;-1.22;100.00
69630;BME280;56857;52.212;5.496;2023-03-01T06:13:03;103050.59;;;-1.24;100.00
69630;BME280;56857;52.212;5.496;2023-03-01T06:15:29;103055.03;;;-1.27;100.00
69630;BME280;56857;52.212;5.496;2023-03-01T06:17:55;103053.38;;;-1.30;100.00
69630;BME280;56857;52.212;5.496;2023-03-01T06:20:23;103056.03;;;-1.31;100.00
69630;BME280;56857;52.212;5.496;2023-03-01T06:22:49;103050.91;;;-1.34;100.00
69630;BME280;56857;52.212;5.496;2023-03-01T06:25:16;103059.53;;;-1.32;100.00
69630;BME280;56857;52.212;5.496;2023-03-01T06:27:42;103055.19;;;-1.32;100.00
69630;BME280;56857;52.212;5.496;2023-03-01T06:30:10;103056.94;;;-1.32;100.00
69630;BME280;56857;52.212;5.496;2023-03-01T06:32:36;103055.19;;;-1.33;100.00
69630;BME280;56857;52.212;5.496;2023-03-01T06:35:03;103052.59;;;-1.33;100.00
69630;BME280;56857;52.212;5.496;2023-03-01T06:37:30;103049.13;;;-1.32;100.00
69630;BME280;56857;52.212;5.496;2023-03-01T06:39:56;103051.72;;;-1.32;100.00
69630;BME280;56857;52.212;5.496;2023-03-01T06:42:21;103059.47;;;-1.31;100.00
69630;BME280;56857;52.212;5.496;2023-03-01T06:44:47;103064.69;;;-1.31;100.00
69630;BME280;56857;52.212;5.496;2023-03-01T06:47:12;103059.53;;;-1.34;100.00
69630;BME280;56857;52.212;5.496;2023-03-01T06:49:37;103057.00;;;-1.35;100.00
69630;BME280;56857;52.212;5.496;2023-03-01T06:52:11;103060.47;;;-1.36;100.00
69630;BME280;56857;52.212;5.496;2023-03-01T06:54:36;103057.03;;;-1.37;100.00
69630;BME280;56857;52.212;5.496;2023-03-01T06:57:01;103065.59;;;-1.33;100.00
69630;BME280;56857;52.212;5.496;2023-03-01T06:59:27;103060.44;;;-1.35;100.00
69630;BME280;56857;52.212;5.496;2023-03-01T07:01:53;103063.91;;;-1.34;100.00
69630;BME280;56857;52.212;5.496;2023-03-01T07:04:19;103061.31;;;-1.34;100.00
69630;BME280;56857;52.212;5.496;2023-03-01T07:06:44;103060.38;;;-1.32;100.00
69630;BME280;56857;52.212;5.496;2023-03-01T07:09:09;103063.75;;;-1.28;100.00
69630;BME280;56857;52.212;5.496;2023-03-01T07:11:34;103067.13;;;-1.25;100.00
69630;BME280;56857;52.212;5.496;2023-03-01T07:14:00;103067.97;;;-1.23;100.00
69630;BME280;56857;52.212;5.496;2023-03-01T07:16:25;103072.28;;;-1.23;100.00
69630;BME280;56857;52.212;5.496;2023-03-01T07:18:51;103067.06;;;-1.23;100.00
69630;BME280;56857;52.212;5.496;2023-03-01T07:21:16;103066.19;;;-1.22;100.00
69630;BME280;56857;52.212;5.496;2023-03-01T07:23:43;103062.75;;;-1.23;100.00
69630;BME280;56857;52.212;5.496;2023-03-01T07:26:08;103070.44;;;-1.18;100.00
69630;BME280;56857;52.212;5.496;2023-03-01T07:28:34;103071.19;;;-1.13;100.00
69630;BME280;56857;52.212;5.496;2023-03-01T07:31:03;103059.00;;;-1.12;100.00
69630;BME280;56857;52.212;5.496;2023-03-01T07:33:28;103065.84;;;-1.08;100.00
69630;BME280;56857;52.212;5.496;2023-03-01T07:35:57;103077.00;;;-1.03;100.00
69630;BME280;56857;52.212;5.496;2023-03-01T07:38:23;103086.44;;;-0.99;100.00
69630;BME280;56857;52.212;5.496;2023-03-01T07:40:48;103084.56;;;-0.94;100.00
69630;BME280;56857;52.212;5.496;2023-03-01T07:43:14;103083.53;;;-0.88;100.00
69630;BME280;56857;52.212;5.496;2023-03-01T07:45:44;103084.28;;;-0.83;100.00
69630;BME280;56857;52.212;5.496;2023-03-01T07:48:10;103081.53;;;-0.77;100.00
69630;BME280;56857;52.212;5.496;2023-03-01T07:50:35;103083.97;;;-0.71;100.00
69630;BME280;56857;52.212;5.496;2023-03-01T07:53:03;103077.75;;;-0.67;100.00
69630;BME280;56857;52.212;5.496;2023-03-01T07:55:29;103085.41;;;-0.61;100.00
69630;BME280;56857;52.212;5.496;2023-03-01T07:57:54;103086.16;;;-0.56;100.00
69630;BME280;56857;52.212;5.496;2023-03-01T08:00:19;103086.06;;;-0.53;100.00
69630;BME280;56857;52.212;5.496;2023-03-01T08:02:45;103081.63;;;-0.49;100.00
69630;BME280;56857;52.212;5.496;2023-03-01T08:05:10;103082.28;;;-0.41;100.00
69630;BME280;56857;52.212;5.496;2023-03-01T08:07:35;103087.44;;;-0.39;100.00
69630;BME280;56857;52.212;5.496;2023-03-01T08:10:01;103078.75;;;-0.40;100.00
69630;BME280;56857;52.212;5.496;2023-03-01T08:12:26;103075.22;;;-0.37;100.00
69630;BME280;56857;52.212;5.496;2023-03-01T08:14:51;103083.81;;;-0.35;100.00
69630;BME280;56857;52.212;5.496;2023-03-01T08:17:17;103075.91;;;-0.31;100.00
69630;BME280;56857;52.212;5.496;2023-03-01T08:19:42;103077.47;;;-0.25;100.00
69630;BME280;56857;52.212;5.496;2023-03-01T08:22:08;103071.13;;;-0.16;100.00
69630;BME280;56857;52.212;5.496;2023-03-01T08:24:33;103078.56;;;-0.03;100.00
69630;BME280;56857;52.212;5.496;2023-03-01T08:26:58;103074.56;;;0.14;100.00
69630;BME280;56857;52.212;5.496;2023-03-01T08:29:24;103072.53;;;0.23;100.00
69630;BME280;56857;52.212;5.496;2023-03-01T08:31:49;103073.94;;;0.34;100.00
69630;BME280;56857;52.212;5.496;2023-03-01T08:34:16;103076.53;;;0.35;100.00
69630;BME280;56857;52.212;5.496;2023-03-01T08:36:43;103076.25;;;0.44;100.00
69630;BME280;56857;52.212;5.496;2023-03-01T08:39:12;103081.34;;;0.48;100.00
69630;BME280;56857;52.212;5.496;2023-03-01T08:41:37;103063.00;;;0.51;100.00
69630;BME280;56857;52.212;5.496;2023-03-01T08:44:03;103063.47;;;0.62;100.00
69630;BME280;56857;52.212;5.496;2023-03-01T08:46:39;103058.03;;;0.69;100.00
69630;BME280;56857;52.212;5.496;2023-03-01T08:49:07;103060.97;;;0.85;100.00
69630;BME280;56857;52.212;5.496;2023-03-01T08:51:33;103061.34;;;1.00;100.00
69630;BME280;56857;52.212;5.496;2023-03-01T08:53:58;103057.38;;;1.13;100.00
69630;BME280;56857;52.212;5.496;2023-03-01T08:56:24;103052.59;;;1.26;100.00
69630;BME280;56857;52.212;5.496;2023-03-01T08:58:49;103051.47;;;1.33;100.00
69630;BME280;56857;52.212;5.496;2023-03-01T09:01:16;103048.47;;;1.44;100.00
69630;BME280;56857;52.212;5.496;2023-03-01T09:03:43;103053.94;;;1.61;100.00
69630;BME280;56857;52.212;5.496;2023-03-01T09:06:09;103053.19;;;1.81;100.00
69630;BME280;56857;52.212;5.496;2023-03-01T09:08:40;103047.59;;;1.90;100.00
69630;BME280;56857;52.212;5.496;2023-03-01T09:11:07;103042.75;;;2.03;100.00
69630;BME280;56857;52.212;5.496;2023-03-01T09:13:59;103036.25;;;2.13;100.00
69630;BME280;56857;52.212;5.496;2023-03-01T09:16:53;103038.63;;;2.19;100.00
69630;BME280;56857;52.212;5.496;2023-03-01T09:19:21;103030.41;;;2.28;100.00
69630;BME280;56857;52.212;5.496;2023-03-01T09:24:31;103016.31;;;2.53;100.00
69630;BME280;56857;52.212;5.496;2023-03-01T09:26:56;103014.09;;;2.64;100.00
69630;BME280;56857;52.212;5.496;2023-03-01T09:29:22;103015.34;;;2.76;100.00
69630;BME280;56857;52.212;5.496;2023-03-01T09:31:57;103008.59;;;2.91;100.00
69630;BME280;56857;52.212;5.496;2023-03-01T09:34:23;103010.63;;;3.05;100.00
69630;BME280;56857;52.212;5.496;2023-03-01T09:36:49;103009.56;;;3.09;100.00
69630;BME280;56857;52.212;5.496;2023-03-01T09:39:15;103004.91;;;3.15;100.00
69630;BME280;56857;52.212;5.496;2023-03-01T09:41:47;103010.75;;;3.22;100.00
69630;BME280;56857;52.212;5.496;2023-03-01T09:47:24;102997.38;;;3.47;100.00
69630;BME280;56857;52.212;5.496;2023-03-01T09:50:21;103003.75;;;3.60;100.00
69630;BME280;56857;52.212;5.496;2023-03-01T09:53:02;102997.84;;;3.93;100.00
69630;BME280;56857;52.212;5.496;2023-03-01T09:55:34;103001.56;;;4.06;100.00
69630;BME280;56857;52.212;5.496;2023-03-01T10:06:40;103003.38;;;4.23;100.00
69630;BME280;56857;52.212;5.496;2023-03-01T10:09:17;102999.44;;;4.32;100.00
69630;BME280;56857;52.212;5.496;2023-03-01T10:12:10;103001.31;;;4.30;100.00
69630;BME280;56857;52.212;5.496;2023-03-01T10:15:11;102996.91;;;4.30;100.00
69630;BME280;56857;52.212;5.496;2023-03-01T10:23:04;102987.56;;;4.42;100.00
69630;BME280;56857;52.212;5.496;2023-03-01T10:26:24;102985.19;;;4.55;99.92
69630;BME280;56857;52.212;5.496;2023-03-01T10:31:04;102982.38;;;4.75;96.67
69630;BME280;56857;52.212;5.496;2023-03-01T10:33:32;102978.91;;;4.75;93.71
69630;BME280;56857;52.212;5.496;2023-03-01T10:36:01;102984.84;;;4.78;93.71
69630;BME280;56857;52.212;5.496;2023-03-01T10:38:30;102978.97;;;4.91;91.01
69630;BME280;56857;52.212;5.496;2023-03-01T10:40:59;102978.63;;;4.97;92.21
69630;BME280;56857;52.212;5.496;2023-03-01T10:43:28;102979.03;;;5.22;91.29
69630;BME280;56857;52.212;5.496;2023-03-01T10:45:57;102966.25;;;5.48;91.88
69630;BME280;56857;52.212;5.496;2023-03-01T10:48:24;102964.31;;;5.51;82.71
69630;BME280;56857;52.212;5.496;2023-03-01T10:53:25;102969.31;;;5.40;81.48
69630;BME280;56857;52.212;5.496;2023-03-01T10:56:01;102953.94;;;5.48;83.66
69630;BME280;56857;52.212;5.496;2023-03-01T10:58:28;102946.16;;;5.63;76.99
69630;BME280;56857;52.212;5.496;2023-03-01T11:03:39;102942.00;;;5.74;81.88
69630;BME280;56857;52.212;5.496;2023-03-01T11:08:45;102935.88;;;6.06;79.26
69630;BME280;56857;52.212;5.496;2023-03-01T11:11:21;102928.22;;;6.01;76.13
69630;BME280;56857;52.212;5.496;2023-03-01T11:13:58;102916.34;;;5.94;77.10
69630;BME280;56857;52.212;5.496;2023-03-01T11:16:32;102913.38;;;6.00;75.47
69630;BME280;56857;52.212;5.496;2023-03-01T11:19:03;102908.13;;;6.14;77.72
69630;BME280;56857;52.212;5.496;2023-03-01T11:21:32;102913.34;;;6.30;76.56
69630;BME280;56857;52.212;5.496;2023-03-01T11:23:59;102903.28;;;6.37;68.15
69630;BME280;56857;52.212;5.496;2023-03-01T11:26:27;102907.19;;;6.45;66.71
69630;BME280;56857;52.212;5.496;2023-03-01T11:28:56;102912.25;;;6.48;70.46
69630;BME280;56857;52.212;5.496;2023-03-01T11:31:24;102913.59;;;6.56;63.19
69630;BME280;56857;52.212;5.496;2023-03-01T11:33:57;102915.28;;;6.71;66.57
69630;BME280;56857;52.212;5.496;2023-03-01T11:36:53;102905.97;;;6.80;60.74
69630;BME280;56857;52.212;5.496;2023-03-01T11:39:42;102905.91;;;6.81;64.92
69630;BME280;56857;52.212;5.496;2023-03-01T11:42:19;102902.59;;;7.06;64.12
69630;BME280;56857;52.212;5.496;2023-03-01T11:44:48;102900.19;;;7.30;63.67
69630;BME280;56857;52.212;5.496;2023-03-01T11:53:00;102896.19;;;7.10;64.20
69630;BME280;56857;52.212;5.496;2023-03-01T11:55:46;102890.59;;;7.15;62.19
69630;BME280;56857;52.212;5.496;2023-03-01T11:58:29;102894.06;;;7.30;65.67
69630;BME280;56857;52.212;5.496;2023-03-01T12:01:12;102887.19;;;7.41;64.39
69630;BME280;56857;52.212;5.496;2023-03-01T12:09:42;102884.31;;;7.72;62.44
69630;BME280;56857;52.212;5.496;2023-03-01T12:12:32;102884.69;;;7.80;57.77
69630;BME280;56857;52.212;5.496;2023-03-01T12:15:17;102883.94;;;7.90;62.23
69630;BME280;56857;52.212;5.496;2023-03-01T12:17:50;102880.09;;;8.09;61.80
69630;BME280;56857;52.212;5.496;2023-03-01T12:23:02;102890.09;;;8.44;58.47
69630;BME280;56857;52.212;5.496;2023-03-01T12:28:51;102879.94;;;8.50;53.86
69630;BME280;56857;52.212;5.496;2023-03-01T12:47:51;102856.25;;;9.83;47.16
69630;BME280;56857;52.212;5.496;2023-03-01T12:50:32;102856.13;;;9.73;45.42
69630;BME280;56857;52.212;5.496;2023-03-01T12:53:00;102853.16;;;9.89;46.92
69630;BME280;56857;52.212;5.496;2023-03-01T12:55:32;102855.81;;;10.25;44.43
69630;BME280;56857;52.212;5.496;2023-03-01T13:01:05;102828.91;;;11.08;45.37
69630;BME280;56857;52.212;5.496;2023-03-01T13:09:38;102819.50;;;10.14;44.78
69630;BME280;56857;52.212;5.496;2023-03-01T13:17:56;102810.16;;;9.74;43.23
69630;BME280;56857;52.212;5.496;2023-03-01T13:20:46;102802.34;;;9.84;44.58
69630;BME280;56857;52.212;5.496;2023-03-01T13:26:05;102797.75;;;9.75;44.40
69630;BME280;56857;52.212;5.496;2023-03-01T13:30:59;102795.47;;;9.46;44.30
69630;BME280;56857;52.212;5.496;2023-03-01T13:36:00;102782.41;;;8.84;45.99
69630;BME280;56857;52.212;5.496;2023-03-01T13:41:07;102776.00;;;8.63;47.25
69630;BME280;56857;52.212;5.496;2023-03-01T13:43:40;102770.94;;;8.47;47.31
69630;BME280;56857;52.212;5.496;2023-03-01T13:46:25;102775.38;;;8.33;46.20
69630;BME280;56857;52.212;5.496;2023-03-01T13:48:53;102778.66;;;8.24;47.17
69630;BME280;56857;52.212;5.496;2023-03-01T13:51:25;102767.75;;;8.16;47.78
69630;BME280;56857;52.212;5.496;2023-03-01T13:53:53;102766.94;;;7.90;48.50
69630;BME280;56857;52.212;5.496;2023-03-01T13:56:24;102759.53;;;7.70;47.87
69630;BME280;56857;52.212;5.496;2023-03-01T13:58:58;102748.56;;;7.36;49.85
69630;BME280;56857;52.212;5.496;2023-03-01T14:01:33;102752.00;;;7.24;51.03
69630;BME280;56857;52.212;5.496;2023-03-01T14:04:01;102750.94;;;7.13;49.97
69630;BME280;56857;52.212;5.496;2023-03-01T14:06:31;102744.78;;;7.00;50.92
69630;BME280;56857;52.212;5.496;2023-03-01T14:09:20;102740.63;;;6.96;52.39
69630;BME280;56857;52.212;5.496;2023-03-01T14:18:10;102717.59;;;6.85;52.71
69630;BME280;56857;52.212;5.496;2023-03-01T14:20:41;102716.00;;;6.83;53.67
69630;BME280;56857;52.212;5.496;2023-03-01T14:23:17;102709.69;;;6.85;55.18
69630;BME280;56857;52.212;5.496;2023-03-01T14:25:51;102705.97;;;6.75;54.82
69630;BME280;56857;52.212;5.496;2023-03-01T14:30:46;102696.53;;;6.71;57.25
69630;BME280;56857;52.212;5.496;2023-03-01T14:33:27;102692.03;;;6.73;57.63
69630;BME280;56857;52.212;5.496;2023-03-01T14:35:59;102690.88;;;6.77;58.73
69630;BME280;56857;52.212;5.496;2023-03-01T14:38:44;102688.16;;;6.79;58.44
69630;BME280;56857;52.212;5.496;2023-03-01T14:41:32;102681.59;;;6.71;58.88
69630;BME280;56857;52.212;5.496;2023-03-01T14:44:04;102674.16;;;6.64;58.51
69630;BME280;56857;52.212;5.496;2023-03-01T14:46:35;102675.31;;;6.60;56.52
69630;BME280;56857;52.212;5.496;2023-03-01T14:49:09;102682.28;;;6.61;56.80